createdAt,value
2022-12-03T00:00:10.490Z,100.00
2022-12-03T00:02:39.895Z,100.00
2022-12-03T00:05:07.495Z,100.00
2022-12-03T00:07:35.638Z,100.00
2022-12-03T00:10:04.014Z,100.00
2022-12-03T00:12:31.371Z,100.00
2022-12-03T00:14:58.780Z,100.00
2022-12-03T00:17:26.210Z,100.00
2022-12-03T00:19:53.529Z,100.00
2022-12-03T00:22:20.850Z,100.00
2022-12-03T00:24:48.564Z,100.00
2022-12-03T00:27:15.880Z,100.00
2022-12-03T00:29:43.248Z,100.00
2022-12-03T00:32:10.523Z,100.00
2022-12-03T00:34:37.831Z,100.00
2022-12-03T00:37:05.221Z,100.00
2022-12-03T00:39:32.577Z,100.00
2022-12-03T00:41:59.920Z,100.00
2022-12-03T00:44:27.307Z,100.00
2022-12-03T00:46:54.636Z,100.00
2022-12-03T00:49:22.034Z,100.00
2022-12-03T00:51:49.460Z,100.00
2022-12-03T00:54:16.774Z,100.00
2022-12-03T00:56:44.082Z,100.00
2022-12-03T00:59:12.577Z,100.00
2022-12-03T01:01:40.557Z,100.00
2022-12-03T01:04:08.152Z,100.00
2022-12-03T01:06:35.585Z,100.00
2022-12-03T01:09:03.070Z,100.00
2022-12-03T01:11:39.580Z,100.00
2022-12-03T01:14:09.755Z,100.00
2022-12-03T01:16:37.382Z,100.00
2022-12-03T01:19:06.143Z,100.00
2022-12-03T01:21:33.547Z,100.00
2022-12-03T01:24:01.084Z,100.00
2022-12-03T01:26:28.376Z,100.00
2022-12-03T01:28:55.765Z,100.00
2022-12-03T01:31:41.618Z,100.00
2022-12-03T01:34:09.007Z,100.00
2022-12-03T01:36:36.320Z,100.00
2022-12-03T01:39:04.194Z,100.00
2022-12-03T01:41:32.723Z,100.00
2022-12-03T01:44:02.265Z,100.00
2022-12-03T01:46:39.472Z,100.00
2022-12-03T01:49:09.983Z,100.00
2022-12-03T01:51:37.325Z,100.00
2022-12-03T01:54:04.865Z,100.00
2022-12-03T01:56:32.190Z,100.00
2022-12-03T01:58:59.465Z,100.00
2022-12-03T02:01:27.555Z,100.00
2022-12-03T02:03:55.123Z,100.00
2022-12-03T02:06:23.415Z,100.00
2022-12-03T02:08:50.928Z,100.00
2022-12-03T02:11:29.972Z,100.00
2022-12-03T02:14:03.232Z,100.00
2022-12-03T02:16:31.136Z,100.00
2022-12-03T02:18:58.887Z,100.00
2022-12-03T02:21:29.010Z,100.00
2022-12-03T02:24:14.602Z,100.00
2022-12-03T02:26:42.052Z,100.00
2022-12-03T02:29:09.460Z,100.00
2022-12-03T02:31:37.962Z,100.00
2022-12-03T02:34:10.413Z,100.00
2022-12-03T02:36:38.537Z,100.00
2022-12-03T02:39:06.241Z,100.00
2022-12-03T02:41:52.480Z,100.00
2022-12-03T02:44:19.897Z,100.00
2022-12-03T02:46:47.296Z,100.00
2022-12-03T02:49:14.708Z,100.00
2022-12-03T02:51:42.137Z,100.00
2022-12-03T02:54:09.440Z,100.00
2022-12-03T02:56:36.855Z,100.00
2022-12-03T02:59:05.721Z,100.00
2022-12-03T03:01:34.979Z,100.00
2022-12-03T03:04:03.354Z,100.00
2022-12-03T03:06:31.166Z,100.00
2022-12-03T03:08:58.626Z,100.00
2022-12-03T03:11:26.841Z,100.00
2022-12-03T03:13:54.304Z,100.00
2022-12-03T03:16:21.833Z,100.00
2022-12-03T03:18:49.465Z,100.00
2022-12-03T03:21:16.958Z,100.00
2022-12-03T03:23:44.304Z,100.00
2022-12-03T03:26:13.739Z,100.00
2022-12-03T03:28:45.661Z,100.00
2022-12-03T03:31:16.253Z,100.00
2022-12-03T03:33:45.936Z,100.00
2022-12-03T03:36:15.379Z,100.00
2022-12-03T03:38:46.044Z,100.00
2022-12-03T03:41:14.860Z,100.00
2022-12-03T03:43:45.701Z,100.00
2022-12-03T03:46:14.450Z,100.00
2022-12-03T03:48:43.643Z,100.00
2022-12-03T03:51:12.680Z,100.00
2022-12-03T03:53:43.083Z,100.00
2022-12-03T03:56:11.688Z,100.00
2022-12-03T03:58:39.057Z,100.00
2022-12-03T04:01:07.048Z,100.00
2022-12-03T04:03:35.154Z,100.00
2022-12-03T04:06:02.744Z,100.00
2022-12-03T04:08:30.775Z,100.00
2022-12-03T04:11:17.277Z,100.00
2022-12-03T04:13:45.355Z,100.00
2022-12-03T04:16:12.780Z,100.00
2022-12-03T04:18:42.855Z,100.00
2022-12-03T04:21:33.165Z,100.00
2022-12-03T04:24:01.205Z,100.00
2022-12-03T04:26:47.551Z,100.00
2022-12-03T04:29:19.051Z,100.00
2022-12-03T04:32:05.409Z,100.00
2022-12-03T04:34:51.598Z,100.00
2022-12-03T04:37:19.300Z,100.00
2022-12-03T04:39:46.711Z,100.00
2022-12-03T04:42:14.084Z,100.00
2022-12-03T04:44:44.381Z,100.00
2022-12-03T04:47:19.538Z,100.00
2022-12-03T04:49:49.561Z,100.00
2022-12-03T04:52:17.688Z,100.00
2022-12-03T04:54:45.008Z,100.00
2022-12-03T04:57:12.429Z,100.00
2022-12-03T04:59:40.242Z,100.00
2022-12-03T05:02:07.685Z,100.00
2022-12-03T05:04:35.308Z,100.00
2022-12-03T05:07:02.697Z,100.00
2022-12-03T05:09:30.100Z,100.00
2022-12-03T05:11:57.461Z,100.00
2022-12-03T05:14:24.714Z,100.00
2022-12-03T05:16:52.041Z,100.00
2022-12-03T05:19:19.609Z,100.00
2022-12-03T05:21:46.899Z,100.00
2022-12-03T05:24:14.991Z,100.00
2022-12-03T05:26:42.330Z,100.00
2022-12-03T05:29:09.639Z,100.00
2022-12-03T05:31:36.925Z,100.00
2022-12-03T05:34:04.644Z,100.00
2022-12-03T05:36:32.130Z,100.00
2022-12-03T05:38:59.428Z,100.00
2022-12-03T05:41:45.179Z,100.00
2022-12-03T05:44:15.073Z,100.00
2022-12-03T05:46:46.338Z,100.00
2022-12-03T05:49:13.763Z,100.00
2022-12-03T05:51:43.069Z,100.00
2022-12-03T05:54:10.408Z,100.00
2022-12-03T05:56:37.780Z,100.00
2022-12-03T05:59:05.132Z,100.00
2022-12-03T06:01:32.437Z,100.00
2022-12-03T06:03:59.948Z,100.00
2022-12-03T06:06:27.328Z,100.00
2022-12-03T06:08:54.748Z,100.00
2022-12-03T06:11:22.153Z,100.00
2022-12-03T06:13:49.489Z,100.00
2022-12-03T06:16:16.874Z,100.00
2022-12-03T06:18:44.283Z,100.00
2022-12-03T06:21:11.668Z,100.00
2022-12-03T06:23:44.817Z,100.00
2022-12-03T06:26:13.299Z,100.00
2022-12-03T06:28:45.638Z,100.00
2022-12-03T06:31:13.989Z,100.00
2022-12-03T06:33:41.322Z,100.00
2022-12-03T06:36:09.056Z,100.00
2022-12-03T06:38:37.726Z,100.00
2022-12-03T06:41:05.204Z,100.00
2022-12-03T06:43:32.477Z,100.00
2022-12-03T06:46:01.291Z,100.00
2022-12-03T06:48:28.703Z,100.00
2022-12-03T06:50:56.010Z,100.00
2022-12-03T06:53:25.497Z,100.00
2022-12-03T06:55:52.828Z,100.00
2022-12-03T06:58:20.203Z,100.00
2022-12-03T07:00:47.558Z,100.00
2022-12-03T07:03:16.451Z,100.00
2022-12-03T07:05:43.859Z,100.00
2022-12-03T07:08:11.288Z,100.00
2022-12-03T07:10:38.828Z,100.00
2022-12-03T07:13:06.276Z,100.00
2022-12-03T07:15:33.631Z,100.00
2022-12-03T07:18:01.988Z,100.00
2022-12-03T07:20:29.304Z,100.00
2022-12-03T07:22:57.709Z,100.00
2022-12-03T07:25:25.343Z,100.00
2022-12-03T07:27:52.678Z,100.00
2022-12-03T07:30:20.286Z,100.00
2022-12-03T07:32:47.654Z,100.00
2022-12-03T07:35:14.990Z,100.00
2022-12-03T07:37:42.379Z,100.00
2022-12-03T07:40:10.420Z,100.00
2022-12-03T07:42:37.941Z,100.00
2022-12-03T07:45:06.201Z,100.00
2022-12-03T07:47:33.539Z,100.00
2022-12-03T07:50:00.935Z,100.00
2022-12-03T07:52:28.275Z,100.00
2022-12-03T07:54:55.808Z,100.00
2022-12-03T07:57:23.505Z,100.00
2022-12-03T07:59:50.792Z,100.00
2022-12-03T08:02:21.291Z,100.00
2022-12-03T08:04:49.100Z,100.00
2022-12-03T08:07:16.415Z,100.00
2022-12-03T08:09:44.030Z,100.00
2022-12-03T08:12:24.567Z,100.00
2022-12-03T08:14:52.771Z,100.00
2022-12-03T08:17:21.710Z,100.00
2022-12-03T08:19:50.209Z,100.00
2022-12-03T08:22:17.574Z,100.00
2022-12-03T08:24:44.942Z,100.00
2022-12-03T08:27:18.995Z,100.00
2022-12-03T08:29:47.117Z,100.00
2022-12-03T08:32:14.570Z,100.00
2022-12-03T08:34:43.917Z,100.00
2022-12-03T08:37:18.557Z,100.00
2022-12-03T08:39:48.545Z,100.00
2022-12-03T08:42:38.441Z,100.00
2022-12-03T08:45:41.033Z,100.00
2022-12-03T08:48:34.597Z,100.00
2022-12-03T08:51:13.206Z,100.00
2022-12-03T08:53:47.697Z,100.00
2022-12-03T08:56:28.442Z,100.00
2022-12-03T08:59:18.181Z,100.00
2022-12-03T09:01:47.223Z,100.00
2022-12-03T09:04:29.184Z,100.00
2022-12-03T09:06:57.020Z,100.00
2022-12-03T09:09:25.599Z,100.00
2022-12-03T09:11:54.142Z,100.00
2022-12-03T09:14:23.576Z,100.00
2022-12-03T09:16:55.697Z,100.00
2022-12-03T09:19:25.628Z,100.00
2022-12-03T09:21:54.270Z,100.00
2022-12-03T09:24:21.592Z,100.00
2022-12-03T09:26:49.155Z,100.00
2022-12-03T09:29:16.674Z,100.00
2022-12-03T09:31:44.096Z,100.00
2022-12-03T09:34:26.730Z,100.00
2022-12-03T09:36:54.069Z,100.00
2022-12-03T09:39:21.432Z,100.00
2022-12-03T09:41:49.815Z,100.00
2022-12-03T09:44:18.500Z,100.00
2022-12-03T09:46:46.807Z,100.00
2022-12-03T09:49:17.609Z,100.00
2022-12-03T09:51:45.588Z,100.00
2022-12-03T09:54:23.860Z,100.00
2022-12-03T09:56:52.763Z,100.00
2022-12-03T09:59:21.750Z,100.00
2022-12-03T10:01:49.390Z,100.00
2022-12-03T10:04:17.748Z,100.00
2022-12-03T10:06:46.227Z,100.00
2022-12-03T10:09:17.509Z,100.00
2022-12-03T10:11:44.996Z,100.00
2022-12-03T10:14:15.004Z,100.00
2022-12-03T10:16:42.272Z,100.00
2022-12-03T10:19:18.105Z,100.00
2022-12-03T10:21:45.430Z,100.00
2022-12-03T10:24:34.882Z,100.00
2022-12-03T10:27:22.738Z,100.00
2022-12-03T10:30:01.416Z,100.00
2022-12-03T10:32:50.154Z,100.00
2022-12-03T10:35:20.752Z,100.00
2022-12-03T10:38:05.483Z,100.00
2022-12-03T10:40:38.132Z,100.00
2022-12-03T10:43:27.078Z,100.00
2022-12-03T10:46:04.648Z,100.00
2022-12-03T10:48:32.298Z,100.00
2022-12-03T10:51:11.396Z,100.00
2022-12-03T10:53:40.642Z,100.00
2022-12-03T10:56:14.821Z,100.00
2022-12-03T10:58:42.290Z,100.00
2022-12-03T11:01:21.281Z,100.00
2022-12-03T11:03:49.771Z,100.00
2022-12-03T11:06:20.138Z,100.00
2022-12-03T11:08:58.556Z,100.00
2022-12-03T11:11:29.549Z,100.00
2022-12-03T11:14:00.581Z,100.00
2022-12-03T11:16:39.980Z,100.00
2022-12-03T11:19:13.291Z,100.00
2022-12-03T11:22:05.465Z,99.07
2022-12-03T11:24:34.564Z,99.70
2022-12-03T11:27:01.797Z,100.00
2022-12-03T11:29:49.448Z,100.00
2022-12-03T11:32:38.727Z,100.00
2022-12-03T11:35:12.634Z,98.44
2022-12-03T11:37:40.207Z,99.01
2022-12-03T11:40:16.802Z,99.34
2022-12-03T11:42:45.876Z,96.96
2022-12-03T11:45:30.384Z,98.33
2022-12-03T11:48:23.783Z,98.97
2022-12-03T11:50:52.307Z,97.65
2022-12-03T11:53:22.608Z,98.63
2022-12-03T11:56:04.140Z,97.16
2022-12-03T11:58:32.991Z,96.65
2022-12-03T12:01:02.668Z,95.88
2022-12-03T12:03:33.060Z,95.50
2022-12-03T12:06:11.348Z,97.19
2022-12-03T12:08:52.333Z,97.52
2022-12-03T12:11:26.222Z,98.30
2022-12-03T12:13:55.537Z,96.93
2022-12-03T12:16:51.809Z,96.32
2022-12-03T12:19:40.598Z,98.77
2022-12-03T12:22:24.914Z,98.30
2022-12-03T12:25:25.490Z,97.57
2022-12-03T12:27:55.064Z,97.74
2022-12-03T12:30:23.231Z,98.82
2022-12-03T12:32:51.451Z,98.78
2022-12-03T12:35:18.855Z,98.85
2022-12-03T12:38:06.357Z,99.03
2022-12-03T12:40:39.318Z,98.96
2022-12-03T12:43:29.617Z,100.00
2022-12-03T12:46:18.546Z,100.00
2022-12-03T12:48:46.388Z,100.00
2022-12-03T12:51:19.616Z,100.00
2022-12-03T12:53:47.914Z,100.00
2022-12-03T12:56:32.214Z,100.00
2022-12-03T12:59:13.803Z,100.00
2022-12-03T13:01:43.213Z,100.00
2022-12-03T13:04:20.242Z,100.00
2022-12-03T13:06:50.028Z,100.00
2022-12-03T13:09:23.374Z,100.00
2022-12-03T13:12:19.530Z,100.00
2022-12-03T13:14:46.886Z,100.00
2022-12-03T13:17:16.959Z,100.00
2022-12-03T13:19:49.363Z,100.00
2022-12-03T13:22:22.866Z,100.00
2022-12-03T13:24:51.786Z,100.00
2022-12-03T13:27:22.683Z,100.00
2022-12-03T13:29:52.939Z,100.00
2022-12-03T13:32:23.468Z,100.00
2022-12-03T13:34:50.872Z,100.00
2022-12-03T13:37:25.369Z,100.00
2022-12-03T13:39:56.197Z,100.00
2022-12-03T13:42:41.600Z,100.00
2022-12-03T13:45:15.070Z,100.00
2022-12-03T13:47:44.990Z,100.00
2022-12-03T13:50:38.537Z,100.00
2022-12-03T13:53:11.923Z,100.00
2022-12-03T13:55:43.754Z,100.00
2022-12-03T13:58:11.133Z,100.00
2022-12-03T14:00:38.609Z,100.00
2022-12-03T14:03:06.012Z,100.00
2022-12-03T14:05:33.318Z,100.00
2022-12-03T14:08:03.641Z,100.00
2022-12-03T14:10:31.077Z,100.00
2022-12-03T14:12:58.800Z,100.00
2022-12-03T14:15:26.598Z,100.00
2022-12-03T14:17:54.050Z,100.00
2022-12-03T14:20:21.583Z,100.00
2022-12-03T14:22:49.112Z,100.00
2022-12-03T14:25:16.388Z,100.00
2022-12-03T14:27:43.769Z,100.00
2022-12-03T14:30:11.696Z,100.00
2022-12-03T14:32:38.987Z,100.00
2022-12-03T14:35:10.156Z,100.00
2022-12-03T14:37:37.682Z,100.00
2022-12-03T14:40:07.083Z,100.00
2022-12-03T14:42:35.428Z,100.00
2022-12-03T14:45:04.623Z,100.00
2022-12-03T14:47:31.883Z,100.00
2022-12-03T14:49:59.266Z,100.00
2022-12-03T14:52:26.596Z,100.00
2022-12-03T14:54:54.013Z,100.00
2022-12-03T14:57:21.444Z,100.00
2022-12-03T14:59:48.786Z,100.00
2022-12-03T15:02:16.258Z,100.00
2022-12-03T15:04:43.590Z,100.00
2022-12-03T15:07:10.971Z,100.00
2022-12-03T15:09:38.254Z,100.00
2022-12-03T15:12:05.926Z,100.00
2022-12-03T15:14:33.268Z,100.00
2022-12-03T15:17:00.594Z,100.00
2022-12-03T15:19:27.924Z,100.00
2022-12-03T15:21:55.215Z,100.00
2022-12-03T15:24:22.554Z,100.00
2022-12-03T15:26:53.382Z,100.00
2022-12-03T15:29:21.078Z,100.00
2022-12-03T15:31:48.469Z,100.00
2022-12-03T15:34:21.875Z,100.00
2022-12-03T15:36:50.203Z,100.00
2022-12-03T15:39:17.530Z,100.00
2022-12-03T15:41:44.858Z,100.00
2022-12-03T15:44:12.295Z,100.00
2022-12-03T15:46:39.698Z,100.00
2022-12-03T15:49:07.157Z,100.00
2022-12-03T15:51:34.492Z,100.00
2022-12-03T15:54:01.838Z,100.00
2022-12-03T15:56:29.219Z,100.00
2022-12-03T15:58:57.655Z,100.00
2022-12-03T16:01:25.142Z,100.00
2022-12-03T16:03:52.512Z,100.00
2022-12-03T16:06:19.867Z,100.00
2022-12-03T16:08:48.227Z,100.00
2022-12-03T16:11:15.857Z,100.00
2022-12-03T16:13:43.147Z,100.00
2022-12-03T16:16:10.511Z,100.00
2022-12-03T16:18:37.969Z,100.00
2022-12-03T16:21:05.365Z,100.00
2022-12-03T16:23:32.700Z,100.00
2022-12-03T16:26:00.043Z,100.00
2022-12-03T16:28:27.349Z,100.00
2022-12-03T16:30:54.820Z,100.00
2022-12-03T16:33:27.337Z,100.00
2022-12-03T16:35:55.397Z,100.00
2022-12-03T16:38:22.779Z,100.00
2022-12-03T16:40:50.204Z,100.00
2022-12-03T16:43:19.747Z,100.00
2022-12-03T16:45:56.202Z,100.00
2022-12-03T16:48:23.664Z,100.00
2022-12-03T16:50:50.983Z,100.00
2022-12-03T16:53:18.581Z,100.00
2022-12-03T16:55:46.015Z,100.00
2022-12-03T16:58:13.365Z,100.00
2022-12-03T17:00:40.678Z,100.00
2022-12-03T17:03:10.767Z,100.00
2022-12-03T17:05:40.994Z,100.00
2022-12-03T17:08:09.428Z,100.00
2022-12-03T17:10:36.898Z,100.00
2022-12-03T17:13:11.491Z,100.00
2022-12-03T17:15:39.945Z,100.00
2022-12-03T17:18:08.559Z,100.00
2022-12-03T17:20:36.309Z,100.00
2022-12-03T17:23:04.064Z,100.00
2022-12-03T17:25:31.391Z,100.00
2022-12-03T17:27:58.690Z,100.00
2022-12-03T17:30:26.026Z,100.00
2022-12-03T17:32:53.408Z,100.00
2022-12-03T17:35:20.773Z,100.00
2022-12-03T17:37:48.054Z,100.00
2022-12-03T17:40:17.275Z,100.00
2022-12-03T17:42:44.653Z,100.00
2022-12-03T17:45:12.659Z,100.00
2022-12-03T17:47:40.072Z,100.00
2022-12-03T17:50:08.325Z,100.00
2022-12-03T17:52:35.763Z,100.00
2022-12-03T17:55:15.744Z,100.00
2022-12-03T17:57:48.772Z,100.00
2022-12-03T18:00:16.421Z,100.00
2022-12-03T18:02:43.690Z,100.00
2022-12-03T18:05:11.050Z,100.00
2022-12-03T18:07:38.429Z,100.00
2022-12-03T18:10:06.601Z,100.00
2022-12-03T18:12:34.127Z,100.00
2022-12-03T18:15:01.426Z,100.00
2022-12-03T18:17:28.722Z,100.00
2022-12-03T18:19:56.420Z,100.00
2022-12-03T18:22:24.110Z,100.00
2022-12-03T18:24:52.192Z,100.00
2022-12-03T18:27:24.491Z,100.00
2022-12-03T18:29:52.546Z,100.00
2022-12-03T18:32:28.821Z,100.00
2022-12-03T18:34:57.770Z,100.00
2022-12-03T18:37:27.913Z,100.00
2022-12-03T18:39:56.387Z,100.00
2022-12-03T18:42:23.981Z,100.00
2022-12-03T18:44:53.823Z,100.00
2022-12-03T18:47:24.572Z,100.00
2022-12-03T18:49:52.353Z,100.00
2022-12-03T18:52:22.084Z,100.00
2022-12-03T18:54:49.511Z,100.00
2022-12-03T18:57:17.925Z,100.00
2022-12-03T18:59:45.312Z,100.00
2022-12-03T19:02:45.958Z,100.00
2022-12-03T19:05:06.127Z,100.00
2022-12-03T19:07:33.587Z,100.00
2022-12-03T19:10:01.052Z,100.00
2022-12-03T19:12:28.545Z,100.00
2022-12-03T19:14:55.931Z,100.00
2022-12-03T19:17:23.270Z,100.00
2022-12-03T19:19:50.626Z,100.00
2022-12-03T19:22:18.071Z,100.00
2022-12-03T19:24:45.361Z,100.00
2022-12-03T19:27:12.681Z,100.00
2022-12-03T19:29:40.559Z,100.00
2022-12-03T19:32:08.956Z,100.00
2022-12-03T19:34:36.615Z,100.00
2022-12-03T19:37:03.940Z,100.00
2022-12-03T19:39:31.958Z,100.00
2022-12-03T19:41:59.362Z,100.00
2022-12-03T19:44:26.723Z,100.00
2022-12-03T19:46:54.376Z,100.00
2022-12-03T19:49:22.341Z,100.00
2022-12-03T19:51:50.194Z,100.00
2022-12-03T19:54:18.498Z,100.00
2022-12-03T19:56:46.361Z,100.00
2022-12-03T19:59:14.234Z,100.00
2022-12-03T20:01:43.208Z,100.00
2022-12-03T20:04:11.718Z,100.00
2022-12-03T20:06:39.539Z,100.00
2022-12-03T20:09:11.453Z,100.00
2022-12-03T20:11:41.162Z,100.00
2022-12-03T20:14:12.144Z,100.00
2022-12-03T20:16:39.775Z,100.00
2022-12-03T20:19:10.080Z,100.00
2022-12-03T20:21:38.161Z,100.00
2022-12-03T20:24:06.566Z,100.00
2022-12-03T20:26:34.528Z,100.00
2022-12-03T20:29:02.230Z,100.00
2022-12-03T20:31:31.489Z,100.00
2022-12-03T20:34:01.069Z,100.00
2022-12-03T20:36:30.307Z,100.00
2022-12-03T20:38:59.873Z,100.00
2022-12-03T20:41:28.000Z,100.00
2022-12-03T20:43:55.725Z,100.00
2022-12-03T20:46:25.915Z,100.00
2022-12-03T20:48:55.044Z,100.00
2022-12-03T20:51:25.108Z,100.00
2022-12-03T20:53:52.511Z,100.00
2022-12-03T20:56:26.133Z,100.00
2022-12-03T20:58:54.333Z,100.00
2022-12-03T21:01:26.736Z,100.00
2022-12-03T21:03:55.721Z,100.00
2022-12-03T21:06:25.585Z,100.00
2022-12-03T21:08:54.062Z,100.00
2022-12-03T21:11:24.284Z,100.00
2022-12-03T21:13:53.515Z,100.00
2022-12-03T21:16:52.007Z,100.00
2022-12-03T21:19:13.691Z,100.00
2022-12-03T21:21:41.228Z,100.00
2022-12-03T21:24:08.790Z,100.00
2022-12-03T21:26:36.469Z,100.00
2022-12-03T21:29:03.935Z,100.00
2022-12-03T21:31:31.933Z,100.00
2022-12-03T21:33:59.514Z,100.00
2022-12-03T21:36:26.925Z,100.00
2022-12-03T21:38:54.407Z,100.00
2022-12-03T21:41:21.748Z,100.00
2022-12-03T21:43:49.012Z,100.00
2022-12-03T21:47:11.510Z,100.00
2022-12-03T21:49:04.758Z,100.00
2022-12-03T21:51:32.099Z,100.00
2022-12-03T21:53:59.403Z,100.00
2022-12-03T21:56:26.741Z,100.00
2022-12-03T21:58:54.873Z,100.00
2022-12-03T22:01:24.079Z,100.00
2022-12-03T22:03:51.767Z,100.00
2022-12-03T22:06:19.259Z,100.00
2022-12-03T22:08:47.050Z,100.00
2022-12-03T22:11:20.735Z,100.00
2022-12-03T22:13:48.711Z,100.00
2022-12-03T22:16:18.720Z,100.00
2022-12-03T22:18:46.680Z,100.00
2022-12-03T22:21:16.717Z,100.00
2022-12-03T22:23:44.610Z,100.00
2022-12-03T22:26:14.369Z,100.00
2022-12-03T22:28:46.324Z,100.00
2022-12-03T22:31:14.378Z,100.00
2022-12-03T22:33:42.356Z,100.00
2022-12-03T22:36:20.153Z,100.00
2022-12-03T22:38:50.750Z,100.00
2022-12-03T22:41:19.274Z,100.00
2022-12-03T22:43:47.301Z,100.00
2022-12-03T22:46:15.586Z,100.00
2022-12-03T22:48:46.554Z,100.00
2022-12-03T22:51:26.725Z,100.00
2022-12-03T22:53:58.974Z,100.00
2022-12-03T22:56:27.424Z,100.00
2022-12-03T22:58:55.172Z,100.00
2022-12-03T23:01:28.062Z,100.00
2022-12-03T23:03:55.909Z,100.00
2022-12-03T23:06:23.876Z,100.00
2022-12-03T23:08:51.527Z,100.00
2022-12-03T23:11:18.901Z,100.00
2022-12-03T23:13:46.450Z,100.00
2022-12-03T23:16:17.838Z,100.00
2022-12-03T23:18:45.842Z,100.00
2022-12-03T23:21:29.344Z,100.00
2022-12-03T23:23:59.555Z,100.00
2022-12-03T23:26:28.111Z,100.00
2022-12-03T23:28:55.784Z,100.00
2022-12-03T23:31:26.210Z,100.00
2022-12-03T23:33:54.687Z,100.00
2022-12-03T23:36:23.554Z,100.00
2022-12-03T23:38:51.045Z,100.00
2022-12-03T23:41:21.600Z,100.00
2022-12-03T23:43:49.602Z,100.00
2022-12-03T23:46:20.213Z,100.00
2022-12-03T23:48:48.265Z,100.00
2022-12-03T23:51:18.883Z,100.00
2022-12-03T23:53:47.044Z,100.00
2022-12-03T23:56:21.175Z,100.00
2022-12-03T23:58:48.985Z,100.00
